Huvudsida
METAR-TAF:

METAR-TAF

Flygplatser :

Bornholms flygplats

Rønne, Danmark

latitud: 55-04N, longitud: 014-45E, höjd: 16 m

Aktuellt väderrapport

Denna rapport gjordes för 33 minuter sedan, klockan 12:50 UTC
Vind 12 kt från nord/nordost
Temperatur 4°C
Fuktighet 87%
Tryck 1027 hPa
Sikt 10 km eller mer
lätta regnskurar

METAR: EKRN 121250Z AUTO 03012KT 9999NDV -SHRA FEW010/// SCT025/// 04/02 Q1027

Tid: 14:23 (13:23 UTC)

Väderprognos

Denna rapport gjordes för 1 timme och 52 minuter sedan, klockan 11:31 UTC
Prognos gäller från 12 kl. 12 UTC till 12 kl. 21 UTC
Vind 13 kt från nordost
Sikt 10 km eller mer
Brutna moln på en höjd av 2000 ft
Temporärt
från 12 kl. 12 UTC till 12 kl. 21 UTC
Sikt: 4000 m
Brutna moln på en höjd av 1200 ft, Högtornande cumulus.
regnskurar

TAF: EKRN 121131Z 1212/1221 04013KT 9999 BKN020 TEMPO 1212/1221 4000 SHRA BKN012TCU

Aktuella väderrapporter och prognoser från 4000 flygplatser (METAR- och TAF-rapporter).

De tillgängliga stationerna syns som gula och röda prickar på kartan.

För musen över prickarna för att se namnen på stationerna.

Klicka sedan för att få väderrapporter och prognoser.

För att ändra kartan: Klicka på de gröna knapparna med ett svart kors på för att zooma in; den gröna knappen med ett streck på för att zooma ut; eller på de gröna pilarna för angränsande kartor.


METAR-TAF: